createdAt,value
2022-08-01T00:00:09.943Z,54.23
2022-08-01T00:02:41.061Z,54.00
2022-08-01T00:05:09.639Z,54.13
2022-08-01T00:07:36.957Z,53.98
2022-08-01T00:10:10.519Z,53.98
2022-08-01T00:12:37.743Z,53.77
2022-08-01T00:15:10.288Z,53.76
2022-08-01T00:17:37.535Z,53.82
2022-08-01T00:20:07.904Z,53.89
2022-08-01T00:22:35.799Z,53.77
2022-08-01T00:25:04.483Z,53.92
2022-08-01T00:27:32.539Z,53.65
2022-08-01T00:30:13.637Z,53.97
2022-08-01T00:32:43.338Z,53.89
2022-08-01T00:35:10.876Z,54.04
2022-08-01T00:37:37.903Z,54.04
2022-08-01T00:40:05.572Z,54.22
2022-08-01T00:42:32.485Z,54.29
2022-08-01T00:44:59.395Z,54.16
2022-08-01T00:47:26.317Z,54.08
2022-08-01T00:49:53.384Z,53.95
2022-08-01T00:52:20.464Z,53.90
2022-08-01T00:54:47.495Z,53.99
2022-08-01T00:57:14.980Z,54.22
2022-08-01T00:59:42.490Z,54.20
2022-08-01T01:02:15.669Z,54.67
2022-08-01T01:04:43.898Z,54.48
2022-08-01T01:07:37.748Z,54.87
2022-08-01T01:10:47.808Z,54.50
2022-08-01T01:13:23.082Z,54.62
2022-08-01T01:16:01.602Z,54.52
2022-08-01T01:18:37.051Z,54.28
2022-08-01T01:21:19.280Z,54.38
2022-08-01T01:24:31.584Z,54.34
2022-08-01T01:27:11.990Z,54.19
2022-08-01T01:29:59.900Z,54.30
2022-08-01T01:32:40.702Z,54.45
2022-08-01T01:35:12.567Z,54.60
2022-08-01T01:37:41.431Z,54.63
2022-08-01T01:40:11.104Z,54.25
2022-08-01T01:42:39.886Z,54.56
2022-08-01T01:45:08.238Z,54.33
2022-08-01T01:47:37.511Z,54.46
2022-08-01T01:50:07.570Z,54.64
2022-08-01T01:52:35.828Z,54.33
2022-08-01T01:55:07.414Z,54.34
2022-08-01T01:57:40.489Z,54.39
2022-08-01T02:00:09.814Z,54.22
2022-08-01T02:02:38.573Z,54.29
2022-08-01T02:05:07.472Z,54.35
2022-08-01T02:07:35.898Z,54.20
2022-08-01T02:10:06.363Z,54.52
2022-08-01T02:12:39.186Z,54.68
2022-08-01T02:15:07.711Z,54.53
2022-08-01T02:17:42.775Z,54.67
2022-08-01T02:20:10.693Z,54.77
2022-08-01T02:22:46.116Z,54.47
2022-08-01T02:25:34.080Z,54.85
2022-08-01T02:28:23.978Z,54.57
2022-08-01T02:30:52.989Z,54.72
2022-08-01T02:33:26.200Z,54.32
2022-08-01T02:36:32.031Z,54.77
2022-08-01T02:38:46.705Z,54.70
2022-08-01T02:41:20.407Z,54.59
2022-08-01T02:43:53.426Z,54.52
2022-08-01T02:46:37.112Z,54.45
2022-08-01T02:49:08.306Z,54.72
2022-08-01T02:51:37.317Z,54.38
2022-08-01T02:54:08.020Z,54.60
2022-08-01T02:56:36.674Z,54.36
2022-08-01T02:59:07.732Z,54.32
2022-08-01T03:01:38.782Z,54.42
2022-08-01T03:04:09.965Z,54.18
2022-08-01T03:06:38.476Z,54.27
2022-08-01T03:09:07.375Z,54.16
2022-08-01T03:11:38.727Z,54.63
2022-08-01T03:14:09.726Z,54.44
2022-08-01T03:16:39.786Z,54.54
2022-08-01T03:19:10.013Z,55.01
2022-08-01T03:21:39.276Z,55.02
2022-08-01T03:24:07.434Z,54.84
2022-08-01T03:26:37.246Z,54.96
2022-08-01T03:29:18.673Z,54.64
2022-08-01T03:31:47.591Z,54.83
2022-08-01T03:34:14.901Z,55.10
2022-08-01T03:36:50.881Z,54.91
2022-08-01T03:39:20.163Z,55.08
2022-08-01T03:42:00.420Z,55.36
2022-08-01T03:44:33.057Z,55.88
2022-08-01T03:47:05.559Z,55.91
2022-08-01T03:49:36.665Z,55.67
2022-08-01T03:52:05.908Z,56.18
2022-08-01T03:54:36.809Z,56.15
2022-08-01T03:57:05.255Z,55.81
2022-08-01T03:59:33.095Z,56.03
2022-08-01T04:02:00.627Z,55.80
2022-08-01T04:04:27.850Z,55.76
2022-08-01T04:06:55.007Z,55.58
2022-08-01T04:09:22.855Z,55.51
2022-08-01T04:11:50.077Z,55.75
2022-08-01T04:14:17.140Z,55.68
2022-08-01T04:16:44.104Z,55.64
2022-08-01T04:19:10.995Z,55.63
2022-08-01T04:21:38.647Z,55.44
2022-08-01T04:24:18.984Z,55.57
2022-08-01T04:26:47.554Z,55.41
2022-08-01T04:29:17.956Z,55.23
2022-08-01T04:31:47.832Z,55.00
2022-08-01T04:34:22.169Z,54.99
2022-08-01T04:36:50.193Z,55.02
2022-08-01T04:39:19.139Z,54.55
2022-08-01T04:41:47.981Z,54.81
2022-08-01T04:44:15.593Z,54.45
2022-08-01T04:46:42.937Z,54.62
2022-08-01T04:49:12.747Z,54.62
2022-08-01T04:51:58.559Z,54.99
2022-08-01T04:54:29.308Z,55.00
2022-08-01T04:57:00.673Z,55.14
2022-08-01T04:59:41.381Z,55.53
2022-08-01T05:02:14.935Z,56.01
2022-08-01T05:04:43.432Z,56.44
2022-08-01T05:07:11.447Z,57.06
2022-08-01T05:09:40.209Z,57.02
2022-08-01T05:12:08.239Z,57.07
2022-08-01T05:14:36.003Z,57.12
2022-08-01T05:17:05.814Z,57.48
2022-08-01T05:19:33.961Z,57.06
2022-08-01T05:22:02.566Z,57.59
2022-08-01T05:24:29.600Z,57.48
2022-08-01T05:26:58.683Z,57.55
2022-08-01T05:29:26.520Z,57.78
2022-08-01T05:31:54.738Z,57.87
2022-08-01T05:34:21.877Z,57.84
2022-08-01T05:36:48.948Z,57.80
2022-08-01T05:39:16.069Z,58.09
2022-08-01T05:41:43.403Z,57.89
2022-08-01T05:44:10.945Z,57.95
2022-08-01T05:46:37.876Z,57.60
2022-08-01T05:49:06.260Z,58.00
2022-08-01T05:51:33.303Z,57.83
2022-08-01T05:54:00.180Z,57.90
2022-08-01T05:56:30.564Z,58.32
2022-08-01T05:58:59.156Z,58.17
2022-08-01T06:01:26.156Z,58.24
2022-08-01T06:03:55.143Z,57.91
2022-08-01T06:06:25.369Z,58.10
2022-08-01T06:08:52.984Z,58.06
2022-08-01T06:11:20.081Z,58.19
2022-08-01T06:13:48.556Z,58.04
2022-08-01T06:16:16.198Z,57.93
2022-08-01T06:18:43.148Z,58.39
2022-08-01T06:21:10.104Z,58.39
2022-08-01T06:23:37.150Z,58.53
2022-08-01T06:26:04.349Z,58.37
2022-08-01T06:28:31.453Z,58.25
2022-08-01T06:31:00.074Z,58.76
2022-08-01T06:33:28.090Z,58.41
2022-08-01T06:35:55.357Z,58.82
2022-08-01T06:38:22.532Z,58.30
2022-08-01T06:40:49.592Z,58.54
2022-08-01T06:43:16.599Z,58.48
2022-08-01T06:45:43.621Z,58.34
2022-08-01T06:48:10.536Z,58.64
2022-08-01T06:50:37.469Z,58.69
2022-08-01T06:53:04.495Z,59.06
2022-08-01T06:55:31.494Z,58.54
2022-08-01T06:57:58.432Z,59.05
2022-08-01T07:00:28.064Z,59.04
2022-08-01T07:02:59.532Z,58.54
2022-08-01T07:05:26.768Z,58.76
2022-08-01T07:07:53.988Z,59.05
2022-08-01T07:10:21.012Z,58.69
2022-08-01T07:12:47.950Z,58.84
2022-08-01T07:15:14.856Z,58.95
2022-08-01T07:17:43.447Z,58.97
2022-08-01T07:20:13.971Z,58.39
2022-08-01T07:22:43.759Z,58.78
2022-08-01T07:25:14.474Z,58.10
2022-08-01T07:27:41.411Z,58.74
2022-08-01T07:30:08.788Z,58.13
2022-08-01T07:32:35.900Z,58.19
2022-08-01T07:35:04.323Z,58.12
2022-08-01T07:37:46.138Z,58.27
2022-08-01T07:40:18.021Z,58.70
2022-08-01T07:42:46.082Z,58.38
2022-08-01T07:45:13.925Z,58.10
2022-08-01T07:47:40.833Z,58.15
2022-08-01T07:50:08.694Z,57.75
2022-08-01T07:52:35.579Z,57.22
2022-08-01T07:55:02.510Z,57.59
2022-08-01T07:57:29.440Z,57.07
2022-08-01T07:59:56.721Z,56.88
2022-08-01T08:02:23.708Z,56.87
2022-08-01T08:04:50.863Z,57.21
2022-08-01T08:07:17.812Z,56.65
2022-08-01T08:09:44.803Z,56.94
2022-08-01T08:12:18.282Z,56.12
2022-08-01T08:14:45.414Z,56.04
2022-08-01T08:17:12.333Z,55.80
2022-08-01T08:19:40.146Z,56.19
2022-08-01T08:22:10.585Z,55.38
2022-08-01T08:24:45.597Z,55.69
2022-08-01T08:27:13.698Z,54.81
2022-08-01T08:29:40.572Z,55.15
2022-08-01T08:32:08.381Z,54.82
2022-08-01T08:34:35.484Z,54.72
2022-08-01T08:37:03.264Z,54.10
2022-08-01T08:39:30.910Z,54.01
2022-08-01T08:42:09.803Z,53.89
2022-08-01T08:44:36.716Z,54.07
2022-08-01T08:47:06.963Z,53.87
2022-08-01T08:49:37.301Z,53.85
2022-08-01T08:52:05.798Z,54.14
2022-08-01T08:54:38.592Z,53.62
2022-08-01T08:57:06.384Z,54.21
2022-08-01T08:59:33.374Z,54.00
2022-08-01T09:02:00.638Z,53.86
2022-08-01T09:04:27.837Z,54.09
2022-08-01T09:06:55.854Z,55.07
2022-08-01T09:09:24.172Z,55.18
2022-08-01T09:11:57.504Z,55.17
2022-08-01T09:14:31.502Z,55.33
2022-08-01T09:17:11.840Z,55.84
2022-08-01T09:19:42.034Z,55.93
2022-08-01T09:22:20.647Z,56.52
2022-08-01T09:25:17.280Z,55.86
2022-08-01T09:27:46.573Z,56.05
2022-08-01T09:30:23.523Z,56.03
2022-08-01T09:33:11.285Z,56.03
2022-08-01T09:35:46.462Z,55.16
2022-08-01T09:38:23.600Z,54.82
2022-08-01T09:40:53.828Z,54.65
2022-08-01T09:43:23.918Z,54.21
2022-08-01T09:45:52.989Z,54.32
2022-08-01T09:48:22.653Z,53.99
2022-08-01T09:50:55.611Z,54.26
2022-08-01T09:53:41.013Z,54.31
2022-08-01T09:56:12.749Z,53.91
2022-08-01T09:59:00.551Z,54.41
2022-08-01T10:01:37.045Z,54.94
2022-08-01T10:04:13.811Z,54.94
2022-08-01T10:06:45.913Z,54.68
2022-08-01T10:09:14.895Z,54.93
2022-08-01T10:11:45.313Z,55.08
2022-08-01T10:14:18.133Z,54.27
2022-08-01T10:16:53.206Z,54.05
2022-08-01T10:19:24.699Z,54.05
2022-08-01T10:21:58.787Z,54.12
2022-08-01T10:24:29.497Z,54.07
2022-08-01T10:27:09.065Z,53.87
2022-08-01T10:30:19.446Z,53.78
2022-08-01T10:32:50.530Z,54.29
2022-08-01T10:35:46.841Z,53.73
2022-08-01T10:38:10.950Z,53.95
2022-08-01T10:40:42.619Z,53.79
2022-08-01T10:43:11.970Z,54.72
2022-08-01T10:45:39.841Z,55.26
2022-08-01T10:48:48.447Z,54.84
2022-08-01T10:51:18.250Z,55.82
2022-08-01T10:53:56.087Z,55.91
2022-08-01T10:56:26.434Z,55.26
2022-08-01T10:59:06.621Z,56.03
2022-08-01T11:01:44.881Z,55.66
2022-08-01T11:04:17.580Z,56.08
2022-08-01T11:07:05.686Z,56.49
2022-08-01T11:09:51.704Z,56.70
2022-08-01T11:12:23.330Z,56.83
2022-08-01T11:15:02.641Z,56.86
2022-08-01T11:17:42.327Z,57.39
2022-08-01T11:20:11.875Z,57.54
2022-08-01T11:23:07.065Z,57.62
2022-08-01T11:26:05.653Z,57.17
2022-08-01T11:28:32.154Z,56.86
2022-08-01T11:31:11.773Z,56.54
2022-08-01T11:33:45.858Z,55.91
2022-08-01T11:36:14.696Z,56.34
2022-08-01T11:39:00.821Z,55.70
2022-08-01T11:41:38.219Z,54.66
2022-08-01T11:44:13.425Z,54.58
2022-08-01T11:47:13.345Z,54.37
2022-08-01T11:49:49.260Z,54.16
2022-08-01T11:52:29.183Z,53.26
2022-08-01T11:55:16.712Z,52.38
2022-08-01T11:57:43.798Z,52.25
2022-08-01T12:00:20.177Z,52.56
2022-08-01T12:02:48.276Z,52.20
2022-08-01T12:05:21.721Z,52.41
2022-08-01T12:07:53.899Z,52.43
2022-08-01T12:10:23.849Z,52.19
2022-08-01T12:12:54.567Z,52.01
2022-08-01T12:15:25.018Z,52.66
2022-08-01T12:18:07.607Z,52.24
2022-08-01T12:20:56.087Z,53.07
2022-08-01T12:23:24.390Z,52.32
2022-08-01T12:25:54.637Z,52.08
2022-08-01T12:28:22.093Z,51.49
2022-08-01T12:30:50.308Z,52.09
2022-08-01T12:33:22.021Z,51.29
2022-08-01T12:35:49.120Z,50.24
2022-08-01T12:38:23.595Z,50.30
2022-08-01T12:40:53.481Z,49.70
2022-08-01T12:43:28.695Z,49.20
2022-08-01T12:46:00.424Z,48.70
2022-08-01T12:48:28.922Z,49.02
2022-08-01T12:50:59.260Z,47.52
2022-08-01T12:53:27.032Z,47.15
2022-08-01T12:56:06.855Z,46.51
2022-08-01T12:58:34.997Z,46.95
2022-08-01T13:01:27.926Z,46.84
2022-08-01T13:04:07.179Z,45.43
2022-08-01T13:06:36.339Z,45.12
2022-08-01T13:09:11.447Z,45.29
2022-08-01T13:11:38.523Z,45.28
2022-08-01T13:14:30.321Z,45.91
2022-08-01T13:16:57.704Z,45.71
2022-08-01T13:19:46.183Z,45.89
2022-08-01T13:22:13.183Z,45.63
2022-08-01T13:24:40.078Z,45.49
2022-08-01T13:27:06.962Z,45.79
2022-08-01T13:29:42.258Z,45.93
2022-08-01T13:32:27.954Z,46.08
2022-08-01T13:35:09.619Z,46.52
2022-08-01T13:37:42.266Z,45.84
2022-08-01T13:40:11.790Z,45.85
2022-08-01T13:42:39.314Z,45.75
2022-08-01T13:45:14.624Z,45.51
2022-08-01T13:48:03.967Z,45.64
2022-08-01T13:50:32.957Z,45.54
2022-08-01T13:52:59.847Z,45.04
2022-08-01T13:55:29.910Z,45.40
2022-08-01T13:58:00.924Z,45.54
2022-08-01T14:00:27.797Z,45.71
2022-08-01T14:02:54.713Z,45.44
2022-08-01T14:05:21.593Z,45.73
2022-08-01T14:07:48.941Z,45.26
2022-08-01T14:10:19.271Z,45.95
2022-08-01T14:12:48.669Z,45.68
2022-08-01T14:15:18.089Z,45.37
2022-08-01T14:18:03.378Z,45.19
2022-08-01T14:20:32.985Z,45.34
2022-08-01T14:23:00.127Z,45.46
2022-08-01T14:26:00.374Z,45.54
2022-08-01T14:28:13.919Z,45.69
2022-08-01T14:30:43.429Z,45.85
2022-08-01T14:33:11.850Z,45.44
2022-08-01T14:36:05.994Z,45.37
2022-08-01T14:38:31.708Z,45.22
2022-08-01T14:41:01.067Z,45.32
2022-08-01T14:43:32.716Z,45.57
2022-08-01T14:46:01.704Z,45.33
2022-08-01T14:48:28.614Z,45.35
2022-08-01T14:50:58.246Z,45.22
2022-08-01T14:53:25.138Z,44.82
2022-08-01T14:55:52.059Z,45.47
2022-08-01T14:58:18.946Z,44.92
2022-08-01T15:00:46.321Z,45.50
2022-08-01T15:03:13.564Z,45.35
2022-08-01T15:05:41.511Z,45.47
2022-08-01T15:08:08.396Z,45.88
2022-08-01T15:10:35.283Z,45.75
2022-08-01T15:13:02.689Z,45.46
2022-08-01T15:15:30.140Z,45.65
2022-08-01T15:17:57.181Z,45.57
2022-08-01T15:20:24.298Z,45.90
2022-08-01T15:22:51.167Z,45.70
2022-08-01T15:25:18.059Z,45.27
2022-08-01T15:27:44.952Z,45.53
2022-08-01T15:30:12.581Z,45.67
2022-08-01T15:32:39.668Z,45.43
2022-08-01T15:35:07.818Z,45.07
2022-08-01T15:37:37.354Z,45.52
2022-08-01T15:40:07.043Z,45.40
2022-08-01T15:42:33.966Z,44.94
2022-08-01T15:45:00.882Z,44.84
2022-08-01T15:47:27.815Z,44.56
2022-08-01T15:49:56.702Z,43.96
2022-08-01T15:52:30.752Z,44.18
2022-08-01T15:54:58.800Z,43.70
2022-08-01T15:57:25.716Z,44.25
2022-08-01T15:59:52.631Z,43.84
2022-08-01T16:02:19.683Z,43.87
2022-08-01T16:04:46.644Z,44.37
2022-08-01T16:07:13.546Z,44.63
2022-08-01T16:09:40.470Z,44.51
2022-08-01T16:12:08.229Z,44.54
2022-08-01T16:14:35.515Z,44.38
2022-08-01T16:17:02.398Z,43.84
2022-08-01T16:19:29.281Z,44.43
2022-08-01T16:21:56.180Z,44.66
2022-08-01T16:24:23.724Z,44.61
2022-08-01T16:26:50.648Z,43.89
2022-08-01T16:29:17.547Z,44.10
2022-08-01T16:32:02.832Z,44.21
2022-08-01T16:34:31.339Z,44.02
2022-08-01T16:36:58.396Z,44.04
2022-08-01T16:39:25.622Z,44.03
2022-08-01T16:41:55.278Z,43.62
2022-08-01T16:44:33.237Z,43.93
2022-08-01T16:47:02.829Z,43.21
2022-08-01T16:49:30.209Z,42.18
2022-08-01T16:51:57.256Z,42.89
2022-08-01T16:54:25.348Z,42.39
2022-08-01T16:57:08.049Z,41.88
2022-08-01T16:59:40.856Z,41.20
2022-08-01T17:02:09.985Z,40.99
2022-08-01T17:04:36.995Z,40.81
2022-08-01T17:07:04.023Z,40.50
2022-08-01T17:09:31.069Z,39.92
2022-08-01T17:11:58.120Z,39.60
2022-08-01T17:14:25.033Z,38.58
2022-08-01T17:16:52.178Z,37.87
2022-08-01T17:19:19.102Z,37.99
2022-08-01T17:21:53.645Z,37.51
2022-08-01T17:24:20.547Z,36.49
2022-08-01T17:26:47.443Z,37.13
2022-08-01T17:29:14.360Z,36.90
2022-08-01T17:31:41.294Z,36.50
2022-08-01T17:34:08.205Z,36.59
2022-08-01T17:36:35.140Z,36.20
2022-08-01T17:39:03.305Z,35.83
2022-08-01T17:41:30.203Z,35.27
2022-08-01T17:43:57.092Z,35.50
2022-08-01T17:46:24.013Z,35.79
2022-08-01T17:48:51.055Z,35.18
2022-08-01T17:51:22.592Z,35.99
2022-08-01T17:53:55.648Z,35.63
2022-08-01T17:56:25.024Z,36.27
2022-08-01T17:58:52.429Z,36.48
2022-08-01T18:01:20.193Z,36.05
2022-08-01T18:03:48.080Z,36.73
2022-08-01T18:06:19.622Z,36.47
2022-08-01T18:08:50.004Z,36.82
2022-08-01T18:11:21.154Z,37.07
2022-08-01T18:13:48.142Z,37.62
2022-08-01T18:16:16.256Z,37.58
2022-08-01T18:18:43.901Z,37.63
2022-08-01T18:21:12.520Z,38.38
2022-08-01T18:23:39.653Z,37.81
2022-08-01T18:26:08.338Z,38.82
2022-08-01T18:28:46.503Z,38.45
2022-08-01T18:31:16.903Z,38.71
2022-08-01T18:33:44.057Z,39.45
2022-08-01T18:36:17.831Z,39.38
2022-08-01T18:38:59.425Z,39.41
2022-08-01T18:41:26.673Z,39.73
2022-08-01T18:44:03.995Z,39.85
2022-08-01T18:46:34.856Z,40.41
2022-08-01T18:49:01.998Z,40.59
2022-08-01T18:51:29.322Z,40.47
2022-08-01T18:53:57.711Z,41.18
2022-08-01T18:56:24.785Z,42.28
2022-08-01T18:58:53.217Z,42.49
2022-08-01T19:01:20.655Z,42.94
2022-08-01T19:03:47.555Z,43.62
2022-08-01T19:06:14.550Z,44.21
2022-08-01T19:08:41.637Z,43.92
2022-08-01T19:11:08.563Z,44.29
2022-08-01T19:13:35.513Z,43.74
2022-08-01T19:16:02.450Z,43.79
2022-08-01T19:18:29.410Z,43.99
2022-08-01T19:20:56.380Z,43.37
2022-08-01T19:23:42.160Z,43.72
2022-08-01T19:26:12.746Z,43.60
2022-08-01T19:28:46.519Z,43.55
2022-08-01T19:31:14.940Z,43.51
2022-08-01T19:33:43.165Z,43.20
2022-08-01T19:36:17.176Z,43.43
2022-08-01T19:38:45.332Z,43.62
2022-08-01T19:41:13.866Z,43.97
2022-08-01T19:43:46.197Z,43.84
2022-08-01T19:46:17.295Z,43.58
2022-08-01T19:48:51.485Z,43.49
2022-08-01T19:51:22.759Z,43.46
2022-08-01T19:54:10.409Z,43.15
2022-08-01T19:56:46.822Z,43.12
2022-08-01T19:59:19.700Z,43.26
2022-08-01T20:01:48.564Z,43.58
2022-08-01T20:04:17.036Z,43.89
2022-08-01T20:06:45.613Z,43.84
2022-08-01T20:09:13.805Z,44.04
2022-08-01T20:11:45.920Z,43.80
2022-08-01T20:14:17.565Z,43.82
2022-08-01T20:16:44.692Z,43.85
2022-08-01T20:19:12.502Z,43.74
2022-08-01T20:22:02.603Z,43.47
2022-08-01T20:24:46.123Z,44.03
2022-08-01T20:27:15.515Z,43.95
2022-08-01T20:29:45.776Z,44.06
2022-08-01T20:32:14.394Z,44.11
2022-08-01T20:34:41.449Z,44.26
2022-08-01T20:37:13.051Z,44.56
2022-08-01T20:39:44.215Z,44.69
2022-08-01T20:42:12.912Z,44.85
2022-08-01T20:44:40.478Z,44.78
2022-08-01T20:47:07.558Z,44.80
2022-08-01T20:49:37.272Z,44.83
2022-08-01T20:52:12.048Z,44.73
2022-08-01T20:54:41.921Z,44.84
2022-08-01T20:57:17.827Z,45.00
2022-08-01T21:00:04.217Z,44.72
2022-08-01T21:03:04.650Z,45.11
2022-08-01T21:05:36.992Z,45.16
2022-08-01T21:08:24.298Z,45.17
2022-08-01T21:10:57.743Z,45.22
2022-08-01T21:13:36.002Z,45.20
2022-08-01T21:16:24.153Z,45.31
2022-08-01T21:19:24.113Z,45.28
2022-08-01T21:22:12.231Z,46.00
2022-08-01T21:24:57.921Z,45.75
2022-08-01T21:27:32.875Z,45.56
2022-08-01T21:30:07.520Z,45.92
2022-08-01T21:32:36.566Z,45.61
2022-08-01T21:35:06.537Z,45.91
2022-08-01T21:37:43.733Z,46.13
2022-08-01T21:40:11.223Z,46.23
2022-08-01T21:42:39.582Z,46.38
2022-08-01T21:45:09.563Z,46.27
2022-08-01T21:47:38.006Z,46.54
2022-08-01T21:50:06.362Z,46.60
2022-08-01T21:53:02.511Z,46.67
2022-08-01T21:55:57.742Z,46.96
2022-08-01T21:58:35.507Z,46.58
2022-08-01T22:01:33.237Z,46.78
2022-08-01T22:04:19.329Z,46.66
2022-08-01T22:06:49.136Z,46.92
2022-08-01T22:09:17.047Z,46.74
2022-08-01T22:12:01.116Z,47.00
2022-08-01T22:14:30.095Z,47.01
2022-08-01T22:16:58.803Z,47.30
2022-08-01T22:19:37.808Z,47.29
2022-08-01T22:22:44.360Z,47.16
2022-08-01T22:25:00.410Z,47.56
2022-08-01T22:28:06.743Z,47.71
2022-08-01T22:30:17.627Z,47.55
2022-08-01T22:33:07.365Z,47.88
2022-08-01T22:35:35.776Z,47.54
2022-08-01T22:38:07.013Z,47.87
2022-08-01T22:40:46.032Z,48.15
2022-08-01T22:43:26.334Z,48.24
2022-08-01T22:46:15.331Z,48.51
2022-08-01T22:48:49.825Z,48.39
2022-08-01T22:51:54.813Z,48.79
2022-08-01T22:54:36.637Z,48.78
2022-08-01T22:57:20.760Z,49.24
2022-08-01T23:00:04.915Z,49.07
2022-08-01T23:02:37.407Z,48.97
2022-08-01T23:05:08.220Z,48.78
2022-08-01T23:07:47.352Z,49.01
2022-08-01T23:10:14.269Z,49.14
2022-08-01T23:12:41.964Z,49.11
2022-08-01T23:15:09.915Z,49.52
2022-08-01T23:17:37.532Z,49.69
2022-08-01T23:20:07.283Z,50.06
2022-08-01T23:22:36.947Z,49.90
2022-08-01T23:25:08.333Z,49.75
2022-08-01T23:28:04.303Z,50.11
2022-08-01T23:30:31.729Z,50.07
2022-08-01T23:32:59.225Z,49.88
2022-08-01T23:35:27.600Z,50.09
2022-08-01T23:38:02.436Z,50.52
2022-08-01T23:40:34.221Z,50.33
2022-08-01T23:43:02.872Z,50.15
2022-08-01T23:46:02.504Z,50.44
2022-08-01T23:48:17.779Z,50.22
2022-08-01T23:50:44.705Z,50.34
2022-08-01T23:53:12.794Z,50.48
2022-08-01T23:55:43.246Z,50.68
2022-08-01T23:58:11.453Z,51.17
